Time;durP1;ratioP1;P1;durP2;ratioP2;P2;SDS_P1;SDS_P2;PMS_P1;PMS_P2;Temp;Humidity;BMP_temperature;BMP_pressure;BME280_temperature;BME280_humidity;BME280_pressure;Samples;Min_cycle;Max_cycle;Signal;HPM_P1;HPM_P2
2022/06/20 00:02:46;;;;;;;7.00;4.17;;;19.50;99.90;;;;;;8372572;28;20194;-68
2022/06/20 00:06:47;;;;;;;7.23;4.40;;;19.30;99.90;;;;;;8368539;28;20530;-67
2022/06/20 00:10:49;;;;;;;8.97;4.77;;;19.20;1.00;;;;;;8366444;28;20182;-67
2022/06/20 00:14:57;;;;;;;9.47;4.77;;;19.10;6.20;;;;;;8364402;28;20197;-67
2022/06/20 00:18:58;;;;;;;10.43;4.50;;;19.00;99.90;;;;;;8373608;28;20339;-67
2022/06/20 00:22:58;;;;;;;7.17;4.27;;;18.90;99.90;;;;;;8367343;28;20178;-67
2022/06/20 00:26:59;;;;;;;8.53;4.33;;;18.80;99.90;;;;;;8371027;28;20278;-67
2022/06/20 00:31:04;;;;;;;10.23;4.73;;;18.80;1.00;;;;;;8368017;28;20188;-67
2022/06/20 00:35:05;;;;;;;10.43;4.80;;;18.70;99.90;;;;;;8367000;28;20323;-67
2022/06/20 00:39:06;;;;;;;7.33;4.10;;;18.60;1.00;;;;;;8366295;28;20243;-67
2022/06/20 00:43:21;;;;;;;9.77;4.80;;;18.50;1.00;;;;;;8368693;28;20236;-67
2022/06/20 00:47:27;;;;;;;9.50;5.30;;;18.40;1.00;;;;;;8363650;28;20201;-67
2022/06/20 00:51:57;;;;;;;9.37;5.17;;;18.30;1.00;;;;;;8366259;28;20194;-68
2022/06/20 00:56:08;;;;;;;9.23;5.03;;;18.20;99.90;;;;;;8362567;28;20245;-68
2022/06/20 01:00:16;;;;;;;8.87;4.93;;;18.20;23.20;;;;;;8362474;28;20179;-67
2022/06/20 01:04:46;;;;;;;11.97;5.73;;;18.10;1.00;;;;;;8367951;28;20204;-65
2022/06/20 01:08:58;;;;;;;10.73;5.60;;;18.10;85.70;;;;;;8364688;28;20220;-67
2022/06/20 01:13:05;;;;;;;10.40;5.97;;;18.00;92.20;;;;;;8365550;28;20264;-67
2022/06/20 01:17:20;;;;;;;12.07;5.50;;;18.00;1.00;;;;;;8362335;28;20210;-67
2022/06/20 01:21:30;;;;;;;13.00;5.83;;;17.90;1.00;;;;;;8367677;28;20249;-67
2022/06/20 01:25:55;;;;;;;10.57;5.53;;;17.80;99.90;;;;;;8369061;28;20189;-67
2022/06/20 01:29:57;;;;;;;12.37;5.87;;;17.80;99.90;;;;;;8374720;28;20207;-67
2022/06/20 01:34:00;;;;;;;12.97;6.40;;;17.70;99.90;;;;;;8367249;28;20211;-66
2022/06/20 01:38:07;;;;;;;10.70;5.63;;;17.70;1.00;;;;;;8365060;28;20217;-67
2022/06/20 01:42:20;;;;;;;9.23;5.57;;;17.60;1.00;;;;;;8365154;28;20177;-66
2022/06/20 01:46:26;;;;;;;8.47;5.10;;;17.70;1.00;;;;;;8366054;28;20180;-67
2022/06/20 01:50:27;;;;;;;10.50;5.90;;;17.70;1.00;;;;;;8372509;28;20293;-66
2022/06/20 01:54:32;;;;;;;9.97;5.43;;;17.70;1.00;;;;;;8365445;28;20185;-67
2022/06/20 01:58:39;;;;;;;8.73;5.53;;;17.70;99.90;;;;;;8365332;28;20181;-65
2022/06/20 02:02:51;;;;;;;8.90;5.27;;;17.70;99.90;;;;;;8375630;28;20364;-68
2022/06/20 02:06:53;;;;;;;9.63;5.73;;;17.70;1.00;;;;;;8367192;28;20207;-68
2022/06/20 02:11:09;;;;;;;7.10;5.07;;;17.60;99.90;;;;;;8368980;28;20365;-68
2022/06/20 02:15:17;;;;;;;9.67;5.47;;;17.60;99.90;;;;;;8361733;28;20200;-69
2022/06/20 02:19:25;;;;;;;7.87;5.60;;;17.50;99.90;;;;;;8363858;28;20271;-67
2022/06/20 02:23:30;;;;;;;12.77;6.03;;;17.50;99.90;;;;;;8368710;28;20186;-67
2022/06/20 02:27:37;;;;;;;8.27;5.63;;;17.40;99.90;;;;;;8367229;28;20221;-67
2022/06/20 02:31:37;;;;;;;9.67;5.60;;;17.40;99.90;;;;;;8369668;28;20189;-68
2022/06/20 02:35:39;;;;;;;7.10;5.30;;;17.40;99.90;;;;;;8379164;28;20208;-67
2022/06/20 02:39:43;;;;;;;10.07;6.20;;;17.30;1.00;;;;;;8383924;28;20182;-67
2022/06/20 02:43:58;;;;;;;11.63;5.93;;;17.30;1.00;;;;;;8373194;28;20195;-68
2022/06/20 02:48:04;;;;;;;11.73;6.73;;;17.40;1.00;;;;;;8371939;28;20181;-65
2022/06/20 02:52:10;;;;;;;12.03;6.90;;;17.30;1.00;;;;;;8377049;28;20188;-69
2022/06/20 02:56:16;;;;;;;13.27;6.00;;;17.40;1.00;;;;;;8368085;28;20206;-67
2022/06/20 03:00:26;;;;;;;12.97;6.67;;;17.40;99.90;;;;;;8370686;28;20179;-67
2022/06/20 03:04:27;;;;;;;11.50;6.77;;;17.40;1.00;;;;;;8368165;28;20281;-68
2022/06/20 03:08:30;;;;;;;10.27;5.70;;;17.40;1.00;;;;;;8377543;28;20197;-68
2022/06/20 03:12:32;;;;;;;7.67;5.63;;;17.40;1.00;;;;;;8370100;28;20177;-67
2022/06/20 03:16:33;;;;;;;8.80;4.83;;;17.40;1.00;;;;;;8383853;28;20210;-67
2022/06/20 03:20:39;;;;;;;8.67;5.33;;;17.40;99.90;;;;;;8370976;28;20553;-67
2022/06/20 03:24:41;;;;;;;8.00;5.33;;;17.50;99.90;;;;;;8371574;28;20532;-68
2022/06/20 03:28:42;;;;;;;12.23;6.80;;;17.60;99.90;;;;;;8375766;28;20229;-68
2022/06/20 03:32:43;;;;;;;9.77;6.03;;;17.70;99.90;;;;;;8372831;28;20177;-68
2022/06/20 03:36:48;;;;;;;9.23;5.80;;;17.70;99.90;;;;;;8365555;28;20213;-66
2022/06/20 03:40:49;;;;;;;9.90;5.27;;;17.80;1.00;;;;;;8373851;28;20178;-68
2022/06/20 03:44:54;;;;;;;11.83;5.93;;;17.90;1.00;;;;;;8370856;28;20197;-69
2022/06/20 03:49:37;;;;;;;11.37;6.17;;;17.90;99.90;;;;;;8371188;28;20177;-70
2022/06/20 03:53:59;;;;;;;10.13;5.97;;;17.80;1.00;;;;;;8365603;28;20190;-67
2022/06/20 03:58:21;;;;;;;8.20;5.60;;;17.60;99.90;;;;;;8365653;28;20213;-68
2022/06/20 04:02:39;;;;;;;14.77;6.27;;;17.60;1.00;;;;;;8372890;28;20268;-70
2022/06/20 04:06:47;;;;;;;10.30;5.70;;;17.80;99.90;;;;;;8373599;28;20200;-71
2022/06/20 04:11:03;;;;;;;7.73;4.97;;;17.90;99.90;;;;;;8364972;28;20758;-70
2022/06/20 04:15:23;;;;;;;8.83;4.87;;;18.20;99.90;;;;;;8367006;28;20528;-69
2022/06/20 04:19:45;;;;;;;10.03;4.90;;;18.20;99.80;;;;;;8374045;28;20216;-71
2022/06/20 04:24:01;;;;;;;10.67;4.63;;;18.60;99.90;;;;;;8363730;28;20519;-69
2022/06/20 04:28:25;;;;;;;12.67;4.90;;;18.60;99.90;;;;;;8376358;28;20271;-70
2022/06/20 04:32:38;;;;;;;11.47;4.70;;;19.20;99.90;;;;;;8372787;28;20181;-70
2022/06/20 04:36:51;;;;;;;8.20;4.70;;;19.50;99.90;;;;;;8377130;28;20263;-68
2022/06/20 04:41:02;;;;;;;10.03;5.07;;;19.40;99.90;;;;;;8371448;28;20205;-70
2022/06/20 04:45:10;;;;;;;10.07;4.93;;;19.30;99.90;;;;;;8384210;28;20181;-70
2022/06/20 04:49:14;;;;;;;8.77;4.77;;;19.30;1.00;;;;;;8368367;28;20181;-69
2022/06/20 04:53:19;;;;;;;7.60;4.37;;;20.20;99.90;;;;;;8366858;28;20174;-69
2022/06/20 04:57:24;;;;;;;8.20;4.20;;;21.00;99.90;;;;;;8370145;28;20213;-67
2022/06/20 05:01:29;;;;;;;7.93;3.80;;;22.10;99.90;;;;;;8382666;28;20186;-66
2022/06/20 05:05:35;;;;;;;7.37;4.03;;;22.90;1.00;;;;;;8369126;28;20198;-68
2022/06/20 05:09:55;;;;;;;8.47;4.30;;;23.40;1.00;;;;;;8371326;28;20185;-67
2022/06/20 05:14:09;;;;;;;7.63;4.10;;;23.20;1.00;;;;;;8375471;28;20178;-66
2022/06/20 05:18:22;;;;;;;6.83;4.33;;;23.20;1.00;;;;;;8369426;28;20201;-67
2022/06/20 05:22:28;;;;;;;9.70;4.67;;;23.20;1.00;;;;;;8365113;28;20521;-66
2022/06/20 05:26:38;;;;;;;10.10;5.37;;;23.00;1.00;;;;;;8362733;28;20207;-65
2022/06/20 05:30:41;;;;;;;7.20;5.00;;;22.80;1.00;;;;;;8368582;28;20193;-66
2022/06/20 05:34:50;;;;;;;8.27;5.27;;;22.60;1.00;;;;;;8371194;28;20192;-67
2022/06/20 05:38:50;;;;;;;8.70;4.87;;;22.70;1.00;;;;;;8371065;28;20174;-66
2022/06/20 05:42:51;;;;;;;10.20;5.57;;;22.80;1.00;;;;;;8362797;28;20288;-69
2022/06/20 05:47:00;;;;;;;14.20;6.40;;;23.00;1.00;;;;;;8375660;28;20193;-69
2022/06/20 05:51:04;;;;;;;7.70;5.33;;;23.20;1.00;;;;;;8370732;28;20288;-69
2022/06/20 05:55:13;;;;;;;11.00;5.60;;;23.60;1.00;;;;;;8362769;28;20201;-66
2022/06/20 05:59:26;;;;;;;6.77;5.30;;;23.80;99.90;;;;;;8365215;28;20185;-68
2022/06/20 06:03:38;;;;;;;11.27;6.17;;;23.80;1.00;;;;;;8373444;28;20193;-69
2022/06/20 06:07:45;;;;;;;9.10;5.60;;;23.70;99.90;;;;;;8370435;28;20184;-67
2022/06/20 06:11:54;;;;;;;8.80;6.00;;;23.60;99.90;;;;;;8370877;28;20206;-66
2022/06/20 06:20:30;;;;;;;8.00;5.63;;;23.50;1.00;;;;;;8364665;28;20209;-68
2022/06/20 06:24:34;;;;;;;7.03;5.00;;;23.80;99.90;;;;;;8368478;28;20187;-68
2022/06/20 06:28:35;;;;;;;8.97;5.13;;;24.00;99.90;;;;;;8363050;28;20208;-67
2022/06/20 06:33:02;;;;;;;8.23;5.10;;;24.20;99.90;;;;;;8376256;28;20185;-67
2022/06/20 06:37:13;;;;;;;9.77;5.63;;;24.40;99.90;;;;;;8368965;28;20206;-67
2022/06/20 06:41:22;;;;;;;8.27;5.03;;;24.50;99.90;;;;;;8364669;28;20178;-68
2022/06/20 06:45:25;;;;;;;10.43;6.30;;;24.40;99.90;;;;;;8365650;28;20197;-64
2022/06/20 06:49:47;;;;;;;10.70;6.73;;;24.40;99.90;;;;;;8361971;28;20186;-69
2022/06/20 06:53:54;;;;;;;9.97;5.90;;;24.60;99.90;;;;;;8365565;28;20259;-68
2022/06/20 06:58:07;;;;;;;10.13;5.77;;;24.80;99.90;;;;;;8371938;28;20216;-68
2022/06/20 07:02:22;;;;;;;9.30;6.00;;;25.00;99.90;;;;;;8363384;28;20169;-69
2022/06/20 07:06:35;;;;;;;11.87;7.37;;;25.10;99.90;;;;;;8371177;28;20277;-68
2022/06/20 07:10:42;;;;;;;11.70;7.60;;;25.30;99.90;;;;;;8368861;28;20182;-68
2022/06/20 07:14:55;;;;;;;13.83;7.67;;;25.40;99.90;;;;;;8366915;28;20182;-68
2022/06/20 07:18:58;;;;;;;8.17;7.37;;;25.40;99.90;;;;;;8364372;28;20180;-69
2022/06/20 07:23:02;;;;;;;11.70;7.40;;;25.80;99.90;;;;;;8370062;28;20448;-67
2022/06/20 07:27:19;;;;;;;9.60;6.80;;;26.00;99.90;;;;;;8375325;28;20209;-70
2022/06/20 07:31:29;;;;;;;9.10;7.07;;;26.10;99.90;;;;;;8381271;28;20182;-66
2022/06/20 07:35:40;;;;;;;10.27;6.77;;;26.10;99.90;;;;;;8371461;28;20255;-68
2022/06/20 07:39:56;;;;;;;13.80;7.17;;;25.90;99.90;;;;;;8373580;28;20178;-70
2022/06/20 07:44:04;;;;;;;10.13;6.67;;;24.00;99.90;;;;;;8379444;28;20173;-65
2022/06/20 07:48:28;;;;;;;7.77;6.20;;;22.50;26.70;;;;;;8377265;28;20184;-67
2022/06/20 07:52:38;;;;;;;5.43;4.60;;;22.10;89.30;;;;;;8372756;28;20182;-65
2022/06/20 07:56:43;;;;;;;10.00;5.87;;;22.50;1.00;;;;;;8371625;28;20319;-66
2022/06/20 08:00:49;;;;;;;17.17;9.63;;;22.80;1.00;;;;;;8368674;28;20177;-66
2022/06/20 08:04:56;;;;;;;12.03;10.43;;;21.30;99.90;;;;;;8370142;28;20201;-63
2022/06/20 08:09:16;;;;;;;13.90;10.80;;;21.30;99.90;;;;;;8373456;28;20185;-67
2022/06/20 08:13:24;;;;;;;13.03;10.70;;;21.10;99.90;;;;;;8373505;28;20193;-66
2022/06/20 08:17:28;;;;;;;13.33;9.43;;;21.30;99.90;;;;;;8372941;28;20225;-72
2022/06/20 08:21:34;;;;;;;11.63;8.73;;;21.50;66.20;;;;;;8375579;28;20182;-67
2022/06/20 08:25:49;;;;;;;12.37;7.57;;;20.50;99.90;;;;;;8368098;28;20320;-67
2022/06/20 08:30:06;;;;;;;11.90;6.80;;;19.50;99.90;;;;;;8367374;28;20221;-67
2022/06/20 08:34:12;;;;;;;7.10;6.40;;;19.20;20.30;;;;;;8370646;28;20221;-69
2022/06/20 08:38:34;;;;;;;9.10;6.17;;;19.20;1.00;;;;;;8368557;28;20240;-74
2022/06/20 08:43:23;;;;;;;6.47;5.70;;;19.00;1.00;;;;;;8366933;28;20624;-67
2022/06/20 08:47:42;;;;;;;8.67;7.23;;;18.80;53.50;;;;;;8327575;28;20217;-67
2022/06/20 08:52:07;;;;;;;9.93;7.60;;;18.20;99.90;;;;;;8367458;28;20181;-67
2022/06/20 08:56:28;;;;;;;7.63;6.70;;;17.90;1.00;;;;;;8369121;28;20205;-68
2022/06/20 09:00:51;;;;;;;9.53;6.80;;;17.70;99.90;;;;;;8369329;28;20291;-67
2022/06/20 09:05:14;;;;;;;8.83;6.43;;;18.00;1.00;;;;;;8365572;28;20216;-67
2022/06/20 09:09:51;;;;;;;9.67;6.20;;;18.50;99.90;;;;;;8366796;28;20185;-69
2022/06/20 09:14:07;;;;;;;7.27;6.57;;;19.10;1.00;;;;;;8366986;28;20178;-66
2022/06/20 09:18:22;;;;;;;9.03;6.63;;;19.40;99.90;;;;;;8363082;28;20190;-68
2022/06/20 09:22:59;;;;;;;9.80;6.80;;;19.20;1.00;;;;;;8371069;28;20197;-71
2022/06/20 09:27:09;;;;;;;8.43;5.93;;;19.30;99.90;;;;;;8368060;28;20233;-69
2022/06/20 09:31:55;;;;;;;7.80;6.00;;;19.60;99.90;;;;;;8374495;28;20196;-66
2022/06/20 09:36:02;;;;;;;7.53;6.10;;;20.00;99.90;;;;;;8303922;28;20220;-67
2022/06/20 09:40:24;;;;;;;7.13;5.63;;;20.10;99.90;;;;;;8371097;28;20474;-68
2022/06/20 09:44:49;;;;;;;7.70;5.80;;;20.50;99.90;;;;;;8370728;28;20194;-68
2022/06/20 09:49:19;;;;;;;7.57;5.60;;;21.20;10.60;;;;;;8365946;28;20268;-67
2022/06/20 09:53:50;;;;;;;8.07;6.13;;;21.50;1.00;;;;;;8366909;28;20182;-67
2022/06/20 09:58:12;;;;;;;7.17;5.43;;;21.40;1.00;;;;;;8365285;28;20189;-69
2022/06/20 10:02:47;;;;;;;6.37;5.23;;;21.40;1.00;;;;;;8372209;28;20269;-68
2022/06/20 10:07:17;;;;;;;8.03;5.77;;;21.40;1.00;;;;;;8372385;28;20224;-69
2022/06/20 10:11:44;;;;;;;7.20;5.43;;;21.40;1.00;;;;;;8366940;28;20185;-68
2022/06/20 10:15:47;;;;;;;5.53;4.80;;;22.10;1.00;;;;;;8368669;28;20181;-68
2022/06/20 10:20:00;;;;;;;7.17;5.00;;;22.20;1.00;;;;;;8371125;28;20207;-68
2022/06/20 10:24:39;;;;;;;5.67;4.80;;;21.30;1.00;;;;;;8364179;28;20269;-67
2022/06/20 10:28:45;;;;;;;6.27;4.57;;;20.30;99.90;;;;;;8367301;28;20242;-66
2022/06/20 10:32:54;;;;;;;7.30;5.23;;;20.30;99.90;;;;;;8357871;28;20186;-67
2022/06/20 10:37:24;;;;;;;10.60;5.07;;;20.60;99.90;;;;;;8364620;28;20192;-67
2022/06/20 10:41:36;;;;;;;8.27;5.10;;;20.90;99.90;;;;;;8367700;28;20220;-68
2022/06/20 10:45:48;;;;;;;7.70;5.40;;;20.40;99.90;;;;;;8372454;28;20205;-69
2022/06/20 10:49:58;;;;;;;5.67;4.57;;;20.10;99.90;;;;;;8369767;28;20196;-68
2022/06/20 10:54:17;;;;;;;5.23;4.57;;;20.00;99.90;;;;;;8359719;28;20205;-68
2022/06/20 10:58:37;;;;;;;6.03;4.63;;;20.20;99.90;;;;;;8373430;28;20213;-69
2022/06/20 11:02:47;;;;;;;6.23;4.53;;;20.40;99.90;;;;;;8373694;28;20197;-66
2022/06/20 11:07:16;;;;;;;7.20;4.67;;;20.30;99.90;;;;;;8370437;28;20205;-68
2022/06/20 11:11:43;;;;;;;5.33;4.83;;;20.00;99.90;;;;;;8370731;28;20254;-70
2022/06/20 11:15:53;;;;;;;5.53;4.60;;;20.30;99.90;;;;;;8360441;28;20280;-67
2022/06/20 11:20:19;;;;;;;5.70;4.63;;;20.70;99.90;;;;;;8369098;28;20197;-66
2022/06/20 11:24:44;;;;;;;6.07;4.57;;;20.80;61.40;;;;;;8373068;28;20184;-66
2022/06/20 11:28:48;;;;;;;5.30;4.80;;;20.70;70.10;;;;;;8372620;28;20213;-69
2022/06/20 11:38:23;;;;;;;5.90;4.77;;;20.70;67.20;;;;;;8314596;28;20209;-68
2022/06/20 11:42:45;;;;;;;5.80;5.20;;;20.60;99.90;;;;;;8348856;28;20205;-68
2022/06/20 11:47:22;;;;;;;6.53;5.40;;;20.60;99.90;;;;;;8375071;28;20205;-68
2022/06/20 11:51:44;;;;;;;7.13;6.43;;;20.40;99.90;;;;;;8371172;28;20185;-68
2022/06/20 11:55:53;;;;;;;7.90;6.20;;;19.70;99.90;;;;;;8367534;28;20188;-68
2022/06/20 11:59:57;;;;;;;6.87;6.17;;;19.10;53.50;;;;;;8369075;28;20254;-68
2022/06/20 12:04:02;;;;;;;6.57;5.93;;;18.90;99.90;;;;;;8368911;28;20229;-66
2022/06/20 12:08:36;;;;;;;7.17;6.23;;;18.90;99.90;;;;;;8372205;28;20209;-66
2022/06/20 12:13:15;;;;;;;6.10;5.47;;;18.80;1.00;;;;;;8374919;28;20190;-68
2022/06/20 12:17:32;;;;;;;7.07;5.23;;;18.80;99.90;;;;;;8356957;28;20221;-69
2022/06/20 12:25:55;;;;;;;5.47;4.80;;;18.80;99.90;;;;;;8368052;28;20279;-66
2022/06/20 12:29:56;;;;;;;5.53;5.03;;;18.90;99.90;;;;;;8365414;28;20197;-68
2022/06/20 12:34:20;;;;;;;5.87;4.70;;;18.90;99.90;;;;;;8368480;28;20187;-67
2022/06/20 12:38:29;;;;;;;5.20;4.70;;;19.10;99.90;;;;;;8372476;28;20216;-68
2022/06/20 12:42:52;;;;;;;4.37;3.97;;;19.30;93.40;;;;;;8366711;28;20186;-67
2022/06/20 12:47:29;;;;;;;5.27;3.90;;;19.60;1.00;;;;;;8366582;28;20217;-68
2022/06/20 12:51:51;;;;;;;3.87;3.53;;;19.80;99.90;;;;;;8354256;28;20229;-68
2022/06/20 12:55:52;;;;;;;5.50;4.60;;;19.70;1.00;;;;;;8367732;28;20196;-69
2022/06/20 13:00:02;;;;;;;5.93;4.00;;;19.60;1.00;;;;;;8365403;28;20201;-68
2022/06/20 13:04:40;;;;;;;4.23;3.83;;;19.70;1.00;;;;;;8366514;28;20201;-67
2022/06/20 13:09:02;;;;;;;5.43;3.93;;;19.60;1.00;;;;;;8371521;28;20202;-67
2022/06/20 13:13:24;;;;;;;4.73;3.33;;;19.50;1.00;;;;;;8365020;28;20282;-66
2022/06/20 13:17:28;;;;;;;3.93;3.53;;;19.50;1.00;;;;;;8365193;28;20191;-68
2022/06/20 13:21:31;;;;;;;3.50;3.20;;;19.40;1.00;;;;;;8368117;28;20189;-66
2022/06/20 13:25:55;;;;;;;4.70;3.97;;;19.20;1.00;;;;;;8361525;28;20201;-67
2022/06/20 13:30:02;;;;;;;3.60;3.30;;;19.10;46.70;;;;;;8355350;28;20212;-65
2022/06/20 13:34:32;;;;;;;5.63;3.53;;;18.80;99.90;;;;;;8367503;28;20181;-68
2022/06/20 13:38:41;;;;;;;3.60;3.30;;;18.40;1.00;;;;;;8365814;28;20185;-65
2022/06/20 13:43:03;;;;;;;4.03;3.63;;;18.00;99.90;;;;;;8361560;28;20190;-67
2022/06/20 13:47:39;;;;;;;6.07;4.27;;;17.70;1.00;;;;;;8368379;28;20205;-70
2022/06/20 13:51:52;;;;;;;5.10;4.33;;;17.30;99.90;;;;;;8371852;28;20560;-67
2022/06/20 13:56:05;;;;;;;4.30;3.90;;;17.10;45.50;;;;;;8360986;28;20358;-66
2022/06/20 14:00:15;;;;;;;5.03;4.10;;;16.70;90.70;;;;;;8372904;28;20182;-66
2022/06/20 14:04:16;;;;;;;6.77;4.70;;;16.40;99.90;;;;;;8365921;28;20197;-66
2022/06/20 14:08:26;;;;;;;5.90;5.17;;;15.90;13.50;;;;;;8364980;28;20238;-65
2022/06/20 14:12:29;;;;;;;4.23;3.83;;;15.70;99.90;;;;;;8365051;28;20300;-66
2022/06/20 14:16:36;;;;;;;4.10;3.70;;;15.40;99.90;;;;;;8361408;28;20303;-64
2022/06/20 14:21:02;;;;;;;4.10;3.50;;;15.20;99.90;;;;;;8371526;28;20185;-65
2022/06/20 14:25:25;;;;;;;3.57;3.27;;;15.10;99.90;;;;;;8368051;28;20181;-68
2022/06/20 14:29:30;;;;;;;3.67;2.10;;;15.00;1.00;;;;;;8362403;28;20284;-68
2022/06/20 14:33:36;;;;;;;1.63;1.53;;;14.90;36.30;;;;;;8361541;28;20190;-66
2022/06/20 14:38:05;;;;;;;4.10;1.47;;;14.60;99.90;;;;;;8367896;28;20273;-67
2022/06/20 14:42:16;;;;;;;1.80;1.20;;;14.40;1.00;;;;;;8365771;28;20199;-66
2022/06/20 14:46:35;;;;;;;1.70;1.13;;;14.20;90.90;;;;;;8365057;28;20234;-68
2022/06/20 14:50:47;;;;;;;1.77;1.50;;;14.00;99.90;;;;;;8364407;28;20186;-64
2022/06/20 14:55:02;;;;;;;1.43;1.20;;;13.70;99.90;;;;;;8365811;28;20186;-67
2022/06/20 14:59:28;;;;;;;1.23;1.13;;;13.60;99.90;;;;;;8372003;28;20260;-66
2022/06/20 15:03:53;;;;;;;2.20;1.40;;;13.50;99.90;;;;;;8366389;28;20210;-66
2022/06/20 15:08:00;;;;;;;1.83;1.00;;;13.40;99.90;;;;;;8367687;28;20393;-65
2022/06/20 15:12:13;;;;;;;5.00;1.40;;;13.30;99.90;;;;;;8363067;28;20179;-68
2022/06/20 15:16:24;;;;;;;2.03;1.47;;;13.20;99.90;;;;;;8364455;28;20206;-67
2022/06/20 15:20:43;;;;;;;2.83;1.83;;;13.10;99.90;;;;;;8369572;28;20301;-69
2022/06/20 15:24:51;;;;;;;1.97;1.73;;;13.00;99.90;;;;;;8361334;28;20213;-67
2022/06/20 15:29:04;;;;;;;2.00;1.70;;;13.00;99.90;;;;;;8361258;28;20244;-67
2022/06/20 15:33:32;;;;;;;2.73;1.30;;;12.90;99.90;;;;;;8370768;28;20575;-68
2022/06/20 15:37:33;;;;;;;2.00;1.50;;;12.90;99.90;;;;;;8369812;28;20185;-68
2022/06/20 15:41:59;;;;;;;1.80;1.40;;;12.90;99.90;;;;;;8364892;28;20238;-68
2022/06/20 15:46:08;;;;;;;2.00;1.63;;;12.90;99.90;;;;;;8374082;28;20212;-68
2022/06/20 15:50:12;;;;;;;1.67;1.47;;;12.90;99.90;;;;;;8378538;28;20185;-66
2022/06/20 15:54:37;;;;;;;2.60;2.13;;;13.00;99.90;;;;;;8371441;28;20184;-67
2022/06/20 15:58:41;;;;;;;3.53;2.30;;;13.30;99.90;;;;;;8372476;28;20189;-66
2022/06/20 16:03:22;;;;;;;2.80;2.33;;;13.60;99.90;;;;;;8372194;28;20211;-65
2022/06/20 16:07:40;;;;;;;3.40;2.20;;;13.90;99.90;;;;;;8368777;28;20236;-66
2022/06/20 16:11:46;;;;;;;1.93;1.60;;;14.20;99.90;;;;;;8372136;28;20215;-67
2022/06/20 16:15:49;;;;;;;2.17;1.97;;;14.50;99.90;;;;;;8369635;28;20190;-65
2022/06/20 16:19:54;;;;;;;3.43;2.07;;;14.80;99.90;;;;;;8371393;28;20181;-67
2022/06/20 16:23:58;;;;;;;2.43;2.23;;;15.00;99.90;;;;;;8366769;28;20256;-65
2022/06/20 16:28:21;;;;;;;1.90;1.50;;;15.30;99.90;;;;;;8375301;28;20212;-67
2022/06/20 16:32:38;;;;;;;2.20;1.50;;;15.60;99.90;;;;;;8382684;28;20189;-65
2022/06/20 16:36:39;;;;;;;1.77;1.30;;;15.30;99.90;;;;;;8370979;28;20186;-67
2022/06/20 16:41:04;;;;;;;1.80;1.30;;;15.20;99.90;;;;;;8363518;28;20331;-65
2022/06/20 16:45:32;;;;;;;1.90;1.70;;;15.00;99.90;;;;;;8376673;28;20260;-68
2022/06/20 16:49:58;;;;;;;1.70;1.40;;;14.70;99.90;;;;;;8384398;28;20292;-65
2022/06/20 16:54:11;;;;;;;2.20;1.50;;;14.70;99.90;;;;;;8376508;28;20212;-65
2022/06/20 16:58:21;;;;;;;1.90;1.70;;;14.60;99.90;;;;;;8375391;28;20185;-67
2022/06/20 17:02:39;;;;;;;2.00;1.77;;;14.70;99.90;;;;;;8377155;28;20181;-67
2022/06/20 17:07:08;;;;;;;2.13;1.90;;;14.90;99.90;;;;;;8375547;28;20308;-68
2022/06/20 17:11:46;;;;;;;2.50;1.70;;;14.80;99.90;;;;;;8377329;28;20561;-66
2022/06/20 17:16:01;;;;;;;2.47;1.60;;;14.50;99.90;;;;;;8380199;28;20186;-67
2022/06/20 17:20:11;;;;;;;2.07;1.87;;;14.20;99.90;;;;;;8381442;28;20271;-68
2022/06/20 17:24:30;;;;;;;1.90;1.47;;;14.10;99.90;;;;;;8366499;28;20186;-66
2022/06/20 17:28:41;;;;;;;1.93;1.73;;;14.10;99.90;;;;;;8363754;28;20222;-69
2022/06/20 17:32:55;;;;;;;1.77;1.53;;;14.20;99.90;;;;;;8374894;28;20174;-69
2022/06/20 17:36:56;;;;;;;3.23;1.90;;;14.30;99.90;;;;;;8370918;28;20176;-66
2022/06/20 17:41:15;;;;;;;2.30;2.07;;;14.20;99.90;;;;;;8368084;28;20267;-66
2022/06/20 17:45:44;;;;;;;2.40;2.10;;;14.20;99.90;;;;;;8373614;28;20187;-69
2022/06/20 17:49:57;;;;;;;2.20;2.00;;;14.20;99.90;;;;;;8367046;28;20240;-66
2022/06/20 17:53:58;;;;;;;2.53;1.80;;;14.30;99.90;;;;;;8369159;28;20182;-66
2022/06/20 17:58:36;;;;;;;2.43;2.23;;;14.20;99.90;;;;;;8359898;28;20179;-69
2022/06/20 18:03:06;;;;;;;2.67;2.30;;;14.10;99.90;;;;;;8340309;28;20205;-68
2022/06/20 18:07:12;;;;;;;3.47;2.57;;;14.10;99.90;;;;;;8365994;28;20216;-66
2022/06/20 18:11:22;;;;;;;2.83;2.63;;;14.10;99.90;;;;;;8362943;28;20178;-68
2022/06/20 18:15:23;;;;;;;2.93;2.50;;;14.10;99.90;;;;;;8371497;28;20216;-70
2022/06/20 18:19:34;;;;;;;3.07;2.57;;;14.30;99.90;;;;;;8370573;28;20225;-69
2022/06/20 18:23:42;;;;;;;3.03;2.20;;;14.40;99.90;;;;;;8365226;28;20186;-69
2022/06/20 18:27:57;;;;;;;3.30;2.77;;;14.40;99.90;;;;;;8366623;28;20209;-66
2022/06/20 18:32:01;;;;;;;3.30;2.97;;;14.40;99.90;;;;;;8364537;28;20176;-67
2022/06/20 18:36:04;;;;;;;3.00;2.70;;;14.30;99.90;;;;;;8365185;28;20264;-66
2022/06/20 18:40:11;;;;;;;3.17;2.77;;;14.30;99.90;;;;;;8363860;28;20190;-66
2022/06/20 18:44:12;;;;;;;3.20;2.90;;;14.40;99.90;;;;;;8361421;28;20178;-72
2022/06/20 18:48:34;;;;;;;4.20;3.27;;;14.50;99.90;;;;;;8371842;28;20208;-69
2022/06/20 18:52:53;;;;;;;4.17;3.40;;;14.50;99.90;;;;;;8371269;28;20178;-70
2022/06/20 18:57:12;;;;;;;3.50;3.07;;;14.50;99.90;;;;;;8368916;28;20188;-69
2022/06/20 19:01:33;;;;;;;3.90;3.60;;;14.30;99.90;;;;;;8365320;28;20185;-69
2022/06/20 19:05:36;;;;;;;4.27;3.30;;;14.10;99.90;;;;;;8365520;28;20220;-66
2022/06/20 19:10:21;;;;;;;4.27;3.87;;;14.00;99.90;;;;;;8368091;28;20320;-67
2022/06/20 19:14:31;;;;;;;4.33;3.90;;;13.90;99.90;;;;;;8341872;28;20194;-69
2022/06/20 19:18:45;;;;;;;4.63;4.07;;;13.80;99.90;;;;;;8364353;28;20189;-68
2022/06/20 19:22:58;;;;;;;5.37;4.37;;;13.70;99.90;;;;;;8380856;28;20181;-66
2022/06/20 19:27:18;;;;;;;4.50;4.10;;;13.60;99.90;;;;;;8371213;28;20197;-66
2022/06/20 19:31:34;;;;;;;5.73;4.53;;;13.50;99.90;;;;;;8371937;28;20180;-65
2022/06/20 19:35:52;;;;;;;4.67;4.17;;;13.40;99.90;;;;;;8372899;28;20232;-66
2022/06/20 19:39:59;;;;;;;5.97;4.20;;;13.40;99.90;;;;;;8375945;28;20199;-70
2022/06/20 19:44:25;;;;;;;4.73;3.97;;;13.30;99.90;;;;;;8369919;28;20185;-71
2022/06/20 19:48:27;;;;;;;4.70;4.27;;;13.40;99.90;;;;;;8373416;28;20260;-66
2022/06/20 19:52:57;;;;;;;4.43;4.03;;;13.40;99.90;;;;;;8374087;28;20189;-66
2022/06/20 19:57:14;;;;;;;5.07;4.57;;;13.20;99.90;;;;;;8352750;28;20191;-67
2022/06/20 20:01:39;;;;;;;5.03;4.57;;;12.90;99.90;;;;;;8367062;28;20772;-65
2022/06/20 20:05:43;;;;;;;5.60;4.57;;;12.70;99.90;;;;;;8384067;28;20222;-66
2022/06/20 20:09:47;;;;;;;5.50;5.00;;;12.50;99.90;;;;;;8373598;28;20211;-64
2022/06/20 20:13:52;;;;;;;5.07;4.67;;;12.40;99.90;;;;;;8376479;28;20180;-63
2022/06/20 20:18:31;;;;;;;5.20;4.70;;;12.20;99.90;;;;;;8374718;28;20200;-64
2022/06/20 20:22:45;;;;;;;6.07;5.47;;;12.20;99.90;;;;;;8370355;28;20186;-64
2022/06/20 20:27:10;;;;;;;5.27;4.77;;;12.10;99.90;;;;;;8360062;28;20225;-64
2022/06/20 20:31:45;;;;;;;4.93;4.50;;;12.00;99.90;;;;;;8368710;28;20212;-65
2022/06/20 20:35:50;;;;;;;4.67;4.20;;;11.90;99.90;;;;;;8369521;28;20196;-64
2022/06/20 20:40:01;;;;;;;5.60;5.00;;;11.80;99.90;;;;;;8367854;28;20186;-66
2022/06/20 20:44:23;;;;;;;6.50;5.57;;;11.80;99.90;;;;;;8372784;28;20192;-64
2022/06/20 20:48:32;;;;;;;5.43;4.93;;;11.60;99.90;;;;;;8369611;28;20235;-64
2022/06/20 20:52:48;;;;;;;5.57;5.07;;;11.50;99.90;;;;;;8374669;28;20188;-66
2022/06/20 20:56:56;;;;;;;6.93;4.87;;;11.40;99.90;;;;;;8369918;28;20200;-67
2022/06/20 21:01:01;;;;;;;6.23;5.00;;;11.40;99.90;;;;;;8371187;28;20227;-65
2022/06/20 21:05:05;;;;;;;7.57;5.10;;;11.30;99.90;;;;;;8366596;28;20198;-64
2022/06/20 21:09:21;;;;;;;5.17;4.13;;;11.30;99.90;;;;;;8370398;28;20214;-68
2022/06/20 21:13:35;;;;;;;5.03;4.53;;;11.20;99.90;;;;;;8364433;28;20193;-66
2022/06/20 21:17:56;;;;;;;4.80;3.97;;;11.10;99.90;;;;;;8364028;28;20185;-66
2022/06/20 21:22:03;;;;;;;4.93;3.60;;;11.10;99.90;;;;;;8371383;28;20177;-66
2022/06/20 21:26:08;;;;;;;4.03;3.70;;;11.00;99.90;;;;;;8363765;28;20241;-65
2022/06/20 21:30:15;;;;;;;4.53;4.10;;;10.90;99.90;;;;;;8363848;28;20197;-64
2022/06/20 21:34:28;;;;;;;5.83;4.20;;;10.90;99.90;;;;;;8371089;28;20184;-64
2022/06/20 21:38:29;;;;;;;6.20;3.80;;;10.90;99.90;;;;;;8370378;28;20193;-64
2022/06/20 21:42:39;;;;;;;4.97;3.70;;;10.90;99.90;;;;;;8369336;28;20199;-65
2022/06/20 21:46:43;;;;;;;4.77;4.23;;;10.90;99.90;;;;;;8369927;28;20541;-67
2022/06/20 21:51:06;;;;;;;6.00;3.80;;;10.90;99.90;;;;;;8364027;28;20185;-65
2022/06/20 21:55:11;;;;;;;5.47;4.20;;;10.90;99.90;;;;;;8366345;28;20275;-68
2022/06/20 21:59:18;;;;;;;4.90;4.10;;;11.00;99.90;;;;;;8366855;28;20197;-69
2022/06/20 22:07:48;;;;;;;5.27;3.73;;;11.10;99.90;;;;;;8366771;28;20336;-65
2022/06/20 22:11:49;;;;;;;4.37;3.00;;;11.10;99.90;;;;;;8367022;28;20186;-67
2022/06/20 22:15:51;;;;;;;3.30;2.80;;;11.10;99.90;;;;;;8381111;28;20196;-65
2022/06/20 22:19:52;;;;;;;5.60;3.30;;;11.00;99.90;;;;;;8370695;28;20200;-67